• Join FlightAware (Why Join?)
  • Login
  • US Flag 
06:46AM EDT


 

Airport Tracker/Info


-or-


 

Live Flight TrackerFlight Track Log ✈ JBU1183 ✈ 29-Jul-2013 ✈ KJFK - KMCO

Flight Track Log - Related Links

Times and Time Zones

All times are in EDT time to prevent confusion due to time zone crossing. See the JBU1183 flight status page for this flight to view local times or setup timezone preferences in your user account.

Time Position Orientation Groundspeed Altitude Reporting Facility
EDT Latitude Longitude Course Direction KTS MPH feet Rate Location/Type
10:19PM 40.6370 -73.7740 217° Southwest 145 167  Level FlightAware
10:19PM 40.6240 -73.7840 210° Southwest 165 190 300 1,680 Climbing FlightAware
10:20PM 40.6070 -73.7960 208° Southwest 171 197 1,300 1,980 Climbing FlightAware
10:20PM 40.6000 -73.7970 186° South 187 215 1,400 840 Climbing FlightAware
10:20PM 40.5850 -73.7910 163° South 215 247 1,700 960 Climbing FlightAware
10:20PM 40.5800 -73.7850 138° Southeast 224 258 1,800 1,500 Climbing FlightAware
10:20PM 40.5750 -73.7750 123° Southeast 236 272 2,000 1,080 Climbing FlightAware
10:21PM 40.5710 -73.7650 118° Southeast 248 285 2,100 1,260 Climbing FlightAware
10:21PM 40.5620 -73.7340 111° Southeast 278 320 2,600 2,460 Climbing FlightAware
10:21PM 40.5560 -73.7080 107° East 280 322 3,600 3,480 Climbing FlightAware
10:22PM 40.5460 -73.6660 107° East 280 322 5,100 3,120 Climbing FlightAware
10:22PM 40.5369 -73.6417 116° Southeast 289 333 5,800 2,580 Climbing FlightAware ADS-B
10:22PM 40.5293 -73.6318 135° Southeast 289 333 6,100 2,760 Climbing FlightAware ADS-B
10:22PM 40.5228 -73.6264 148° Southeast 286 329 6,400 3,780 Climbing FlightAware ADS-B
10:22PM 40.5042 -73.6125 150° Southeast 279 321 7,500 3,720 Climbing FlightAware ADS-B
10:23PM 40.4875 -73.5997 150° Southeast 275 316 8,400 3,060 Climbing FlightAware ADS-B
10:23PM 40.4706 -73.5862 149° Southeast 281 323 9,100 2,460 Climbing FlightAware ADS-B
10:23PM 40.4529 -73.5717 148° Southeast 290 334 9,700 1,920 Climbing FlightAware ADS-B
10:24PM 40.4161 -73.5415 148° Southeast 319 367 10,600 1,260 Climbing FlightAware ADS-B
10:24PM 40.3755 -73.5085 148° Southeast 357 411 11,000 1,380 Climbing FlightAware ADS-B
10:25PM 40.3287 -73.4705 148° Southeast 371 427 12,100 2,220 Climbing FlightAware ADS-B
10:25PM 40.2914 -73.4411 149° Southeast 375 432 13,200 2,520 Climbing FlightAware ADS-B
10:25PM 40.2586 -73.4320 168° South 358 412 14,000 2,280 Climbing FlightAware ADS-B
10:26PM 40.2223 -73.4464 197° South 350 403 14,900 1,860 Climbing FlightAware ADS-B
10:26PM 40.1936 -73.4673 209° Southwest 361 415 15,400 1,560 Climbing FlightAware ADS-B
10:26PM 40.1715 -73.4819 207° Southwest 365 420 15,800 1,860 Climbing FlightAware ADS-B
10:27PM 40.1196 -73.5117 204° Southwest 374 430 16,900 1,920 Climbing FlightAware ADS-B
10:28PM 40.0610 -73.5450 204° Southwest 377 434 18,100 1,980 Climbing FlightAware
10:28PM 40.0511 -73.5508 204° Southwest 378 435 18,300 2,040 Climbing FlightAware ADS-B
10:28PM 39.9998 -73.5814 205° Southwest 383 441 19,400 1,800 Climbing FlightAware ADS-B
10:29PM 39.9504 -73.6108 205° Southwest 390 449 20,200 1,560 Climbing FlightAware ADS-B
10:29PM 39.9024 -73.6391 204° Southwest 396 456 21,000 1,500 Climbing FlightAware ADS-B
10:30PM 39.8496 -73.6788 210° Southwest 401 461 21,800 1,500 Climbing FlightAware ADS-B
10:30PM 39.8012 -73.7168 211° Southwest 405 466 22,600 1,560 Climbing FlightAware ADS-B
10:31PM 39.7528 -73.7550 211° Southwest 408 470 23,400 1,500 Climbing FlightAware ADS-B
10:31PM 39.7048 -73.7952 213° Southwest 412 474 24,100 1,320 Climbing FlightAware ADS-B
10:32PM 39.6545 -73.8375 213° Southwest 416 479 24,800 1,500 Climbing FlightAware ADS-B
10:32PM 39.6051 -73.8785 213° Southwest 414 476 25,700 1,500 Climbing FlightAware ADS-B
10:33PM 39.5549 -73.9202 213° Southwest 415 478 26,400 1,260 Climbing FlightAware ADS-B
10:33PM 39.5057 -73.9608 212° Southwest 419 482 27,000 1,140 Climbing FlightAware ADS-B
10:34PM 39.4563 -74.0013 212° Southwest 421 484 27,600 1,140 Climbing FlightAware ADS-B
10:34PM 39.3983 -74.0490 212° Southwest 423 487 28,300 1,200 Climbing FlightAware ADS-B
10:35PM 39.3490 -74.0894 212° Southwest 424 488 28,900 900 Climbing FlightAware ADS-B
10:35PM 39.2980 -74.1312 212° Southwest 430 495 29,200 660 Climbing FlightAware ADS-B
10:36PM 39.2472 -74.1729 212° Southwest 435 501 29,600 960 Climbing FlightAware ADS-B
10:36PM 39.1966 -74.2143 212° Southwest 434 499 30,200 1,080 Climbing FlightAware ADS-B
10:37PM 39.1450 -74.2562 212° Southwest 435 501 30,700 1,080 Climbing FlightAware ADS-B
10:37PM 39.0939 -74.2978 212° Southwest 434 499 31,300 1,260 Climbing FlightAware ADS-B
10:38PM 39.0420 -74.3399 212° Southwest 431 496 32,000 1,260 Climbing FlightAware ADS-B
10:38PM 38.9853 -74.3859 212° Southwest 426 490 32,700 1,080 Climbing FlightAware ADS-B
10:39PM 38.9349 -74.4268 212° Southwest 427 491 33,200 840 Climbing FlightAware ADS-B
10:39PM 38.8820 -74.4695 212° Southwest 426 490 33,600 1,140 Climbing FlightAware ADS-B
10:40PM 38.8302 -74.5110 212° Southwest 418 481 34,400 1,620 Climbing FlightAware ADS-B
10:40PM 38.7819 -74.5500 212° Southwest 406 467 35,300 1,320 Climbing FlightAware ADS-B
10:41PM 38.7341 -74.5886 212° Southwest 402 463 35,800 480 Climbing FlightAware ADS-B
10:42PM 38.6765 -74.6347 212° Southwest 409 471 35,900 120 Climbing FlightAware ADS-B
10:42PM 38.6252 -74.6757 212° Southwest 408 470 36,000 60 Climbing FlightAware ADS-B
10:43PM 38.5769 -74.7143 212° Southwest 411 473 36,000  Level FlightAware ADS-B
10:43PM 38.5276 -74.7537 212° Southwest 413 475 36,000  Level FlightAware ADS-B
10:44PM 38.4575 -74.8094 212° Southwest 412 474 36,000  Level FlightAware ADS-B
10:44PM 38.4086 -74.8483 212° Southwest 413 475 36,000  Level FlightAware ADS-B
10:45PM 38.3585 -74.8881 212° Southwest 413 475 36,000  Level FlightAware ADS-B
10:45PM 38.3094 -74.9270 212° Southwest 414 476 36,000  Level FlightAware ADS-B
10:46PM 38.2610 -74.9650 212° Southwest 413 475 36,000  Level FlightAware
10:46PM 38.2394 -74.9823 212° Southwest 414 476 36,000  Level FlightAware ADS-B
10:47PM 38.1878 -75.0230 212° Southwest 416 479 36,000  Level FlightAware ADS-B
10:47PM 38.1382 -75.0622 212° Southwest 418 481 36,000  Level FlightAware ADS-B
10:48PM 38.0876 -75.1020 212° Southwest 420 483 36,000  Level FlightAware ADS-B
10:48PM 38.0369 -75.1416 212° Southwest 419 482 36,000  Level FlightAware ADS-B
10:49PM 37.9856 -75.1818 212° Southwest 419 482 36,000  Level FlightAware ADS-B
10:49PM 37.9358 -75.2211 212° Southwest 419 482 36,000  Level FlightAware ADS-B
10:50PM 37.8770 -75.2670 212° Southwest 419 482 36,000  Level FlightAware ADS-B
10:50PM 37.8262 -75.3065 212° Southwest 420 483 36,000  Level FlightAware ADS-B
10:51PM 37.7661 -75.3533 212° Southwest 422 486 36,000  Level FlightAware ADS-B
10:51PM 37.7158 -75.3923 212° Southwest 422 486 36,000  Level FlightAware ADS-B
10:52PM 37.6655 -75.4314 212° Southwest 421 484 36,000  Level FlightAware ADS-B
10:52PM 37.6145 -75.4709 212° Southwest 422 486 36,000  Level FlightAware ADS-B
10:53PM 37.5631 -75.5106 211° Southwest 422 486 36,000  Level FlightAware ADS-B
10:53PM 37.5130 -75.5493 211° Southwest 423 487 36,000  Level FlightAware ADS-B
10:54PM 37.4500 -75.5980 212° Southwest 418 481 36,000  Level FlightAware
10:55PM 37.3930 -75.6420 212° Southwest 420 483 36,000  Level FlightAware
10:55PM 37.3645 -75.6638 211° Southwest 425 489 36,000  Level FlightAware ADS-B
10:55PM 37.3130 -75.7033 211° Southwest 428 493 36,000  Level FlightAware ADS-B
10:56PM 37.2613 -75.7428 211° Southwest 429 494 36,000  Level FlightAware ADS-B
10:56PM 37.2099 -75.7821 211° Southwest 431 496 36,000  Level FlightAware ADS-B
10:57PM 37.1566 -75.8229 211° Southwest 431 496 36,000  Level FlightAware ADS-B
10:57PM 37.1058 -75.8617 211° Southwest 430 495 36,000  Level FlightAware ADS-B
10:58PM 37.0533 -75.9016 211° Southwest 429 494 36,000  Level FlightAware ADS-B
10:58PM 37.0002 -75.9418 211° Southwest 427 491 36,000  Level FlightAware ADS-B
10:59PM 36.9487 -75.9807 211° Southwest 427 491 36,000  Level FlightAware ADS-B
11:00PM 36.8961 -76.0205 211° Southwest 428 493 36,000 -120 Level FlightAware ADS-B
11:00PM 36.8452 -76.0590 211° Southwest 429 494 35,900  Descending FlightAware ADS-B
11:01PM 36.7880 -76.1022 211° Southwest 430 495 36,000 60 Climbing FlightAware ADS-B
11:01PM 36.7354 -76.1419 211° Southwest 430 495 36,000  Level FlightAware ADS-B
11:02PM 36.6776 -76.1853 211° Southwest 430 495 36,000  Level FlightAware ADS-B
11:02PM 36.6260 -76.2240 211° Southwest 431 496 36,000  Level FlightAware
11:03PM 36.5550 -76.2770 211° Southwest 433 498 36,000  Level FlightAware
11:04PM 36.4860 -76.3290 211° Southwest 431 496 36,000  Level FlightAware
11:04PM 36.4370 -76.3650 211° Southwest 433 498 36,000  Level FlightAware
11:05PM 36.3390 -76.4380 211° Southwest 442 509 36,000  Level FlightAware
11:06PM 36.2700 -76.4900 211° Southwest 442 509 36,000  Level FlightAware
11:06PM 36.1810 -76.5560 211° Southwest 443 510 36,000  Level FlightAware
11:07PM 36.1120 -76.6070 211° Southwest 444 511 36,000  Level FlightAware
11:08PM 36.0580 -76.6470 211° Southwest 444 511 36,000  Level FlightAware
11:08PM 36.0040 -76.6870 211° Southwest 444 511 36,000  Level FlightAware
11:09PM 35.9500 -76.7270 211° Southwest 444 511 36,000  Level FlightAware
11:10PM 35.8970 -76.7670 211° Southwest 444 511 36,000  Level FlightAware
11:10PM 35.8430 -76.8070 211° Southwest 444 511 36,000  Level FlightAware
11:11PM 35.7890 -76.8470 211° Southwest 444 511 36,000  Level FlightAware
11:11PM 35.7350 -76.8870 211° Southwest 444 511 36,000  Level FlightAware
11:12PM 35.6810 -76.9270 211° Southwest 444 511 36,000  Level FlightAware
11:13PM 35.6270 -76.9670 211° Southwest 444 511 36,000  Level FlightAware
11:13PM 35.5720 -77.0080 211° Southwest 444 511 36,000  Level FlightAware
11:14PM 35.5160 -77.0480 210° Southwest 444 511 36,000  Level FlightAware
11:14PM 35.4620 -77.0880 211° Southwest 444 511 36,000  Level FlightAware
11:15PM 35.4090 -77.1280 212° Southwest 444 511 36,000  Level FlightAware
11:16PM 35.3550 -77.1680 211° Southwest 444 511 36,000  Level FlightAware
11:16PM 35.3010 -77.2070 211° Southwest 444 511 36,000  Level FlightAware
11:17PM 35.0883 -77.2825 211° Southwest 439 505 36,000  Level Washington Center
11:18PM 34.9708 -77.3258 197° South 444 511 36,000  Level Washington Center
11:19PM 34.8533 -77.3714 198° South 444 511 36,000 -60 Level Washington Center
11:20PM 34.7294 -77.4242 199° South 439 505 35,900  Descending Washington Center
11:26PM 34.0340 -77.6860 199° South 441 507 36,000  Climbing FlightAware
11:26PM 33.9560 -77.7160 198° South 446 513 36,000  Level FlightAware
11:27PM 33.8540 -77.7540 197° South 460 529 36,000  Level FlightAware
11:28PM 33.7790 -77.7820 197° South 462 532 36,000  Level FlightAware
11:28PM 33.7070 -77.8090 197° South 458 527 36,000  Level FlightAware
11:29PM 33.6310 -77.8370 197° South 455 524 36,000 -120 Level FlightAware
11:30PM 33.6310 -77.8370 197° South 452 520 35,900 -60 Descending FlightAware
11:31PM 33.6320 -77.8370 360° North 449 517 35,900  Level FlightAware
11:31PM 33.5710 -77.8590 197° South 449 517 35,900 60 Level FlightAware
11:32PM 33.2840 -77.9670 197° South 451 519 36,000 60 Climbing FlightAware
11:33PM 33.2190 -77.9910 197° South 451 519 36,000  Level FlightAware
11:33PM 33.1440 -78.0190 197° South 455 524 36,000  Level FlightAware
11:34PM 33.0580 -78.0510 197° South 457 526 36,000  Level FlightAware
11:34PM 32.9940 -78.0740 197° South 457 526 36,000  Level FlightAware
11:35PM 32.9160 -78.1030 197° South 459 528 36,000  Level FlightAware
11:36PM 32.8340 -78.1330 197° South 458 527 36,000  Level FlightAware
11:36PM 32.7640 -78.1590 197° South 457 526 36,000  Level FlightAware
11:37PM 32.6930 -78.1850 197° South 458 527 36,000  Level FlightAware
11:37PM 32.6240 -78.2100 197° South 456 525 36,000  Level FlightAware
11:38PM 32.5670 -78.2310 197° South 456 525 36,000  Level FlightAware
11:39PM 32.4810 -78.2620 197° South 457 526 36,000  Level FlightAware
11:39PM 32.4100 -78.2880 197° South 460 529 36,000  Level FlightAware
11:40PM 32.3400 -78.3130 197° South 460 529 36,000  Level FlightAware
11:40PM 32.2680 -78.3400 198° South 460 529 36,000  Level FlightAware
11:41PM 32.1960 -78.3660 197° South 460 529 36,000  Level FlightAware
11:41PM 32.1240 -78.3920 197° South 461 531 36,000  Level FlightAware
11:42PM 32.0600 -78.4150 197° South 461 531 36,000  Level FlightAware
11:43PM 31.9880 -78.4410 197° South 463 533 36,000  Level FlightAware
11:43PM 31.9150 -78.4670 197° South 463 533 36,000  Level FlightAware
11:44PM 31.8520 -78.4900 197° South 463 533 36,000  Level FlightAware
11:44PM 31.7900 -78.5120 197° South 463 533 36,000  Level FlightAware
11:45PM 31.7270 -78.5350 197° South 463 533 36,000  Level FlightAware
11:46PM 31.6640 -78.5570 197° South 463 533 36,000  Level FlightAware
11:46PM 31.6020 -78.5800 198° South 463 533 36,000  Level FlightAware
11:47PM 31.5390 -78.6020 197° South 463 533 36,000  Level FlightAware
11:47PM 31.4750 -78.6250 197° South 463 533 36,000  Level FlightAware
11:48PM 31.4120 -78.6480 197° South 463 533 36,000  Level FlightAware
11:49PM 31.3490 -78.6700 197° South 463 533 36,000  Level FlightAware
11:49PM 31.2870 -78.6930 198° South 463 533 36,000  Level FlightAware
11:50PM 31.2240 -78.7150 197° South 463 533 36,000  Level FlightAware
11:50PM 31.1610 -78.7370 197° South 463 533 36,000  Level FlightAware
11:51PM 31.0990 -78.7600 198° South 463 533 36,000  Level FlightAware
11:52PM 31.0360 -78.7820 197° South 463 533 36,000  Level FlightAware
11:52PM 30.9730 -78.8050 197° South 463 533 36,000 -120 Level FlightAware
11:53PM 30.6761 -78.9075 197° South 471 542 35,900 -60 Descending Jacksonville Center
11:55PM 30.5003 -78.9714 197° South 478 550 35,900  Level Miami Center
11:56PM 30.3683 -79.0167 196° South 478 550 35,900  Level Miami Center
11:57PM 30.2506 -79.0767 204° Southwest 478 550 35,900  Level Miami Center
11:58PM 30.1492 -79.1633 216° Southwest 462 532 35,900  Level Miami Center
11:59PM 30.0353 -79.2497 213° Southwest 479 551 36,000  Climbing Miami Center
12:00AM 29.9547 -79.3244 219° Southwest 479 551 36,000 -300 Level Miami Center
12:01AM 29.8236 -79.4169 211° Southwest 473 544 35,500 -720 Descending Miami Center
12:02AM 29.7156 -79.5125 218° Southwest 478 550 34,600 -1,320 Descending Miami Center
12:03AM 29.6056 -79.5981 214° Southwest 483 556 32,900 -1,860 Descending Miami Center
12:04AM 29.4975 -79.6836 215° Southwest 483 556 30,900 -2,220 Descending Miami Center
12:05AM 29.3894 -79.7689 215° Southwest 483 556 28,500 -2,340 Descending Miami Center
12:06AM 29.2856 -79.8517 215° Southwest 478 550 26,300 -2,220 Descending Miami Center
12:07AM 29.1797 -79.9297 213° Southwest 473 544 24,100 -2,280 Descending Miami Center
12:08AM 29.0800 -80.0075 214° Southwest 458 527 21,800 -2,340 Descending Miami Center
12:09AM 28.9803 -80.0806 213° Southwest 447 514 19,400 -1,560 Descending Miami Center
12:15AM 28.7300 -80.8140 249° West 315 362 9,900 -1,440 Descending FlightAware
12:16AM 28.7200 -80.8440 249° West 299 344 9,500 -1,860 Descending FlightAware
12:16AM 28.7120 -80.8690 250° West 297 342 8,800 -2,340 Descending FlightAware
12:16AM 28.7040 -80.8920 248° West 295 339 8,300 -660 Descending FlightAware
12:17AM 28.6930 -80.9250 249° West 295 339 8,300 -1,020 Level FlightAware
12:17AM 28.6790 -80.9620 247° West 288 331 7,400 -1,860 Descending FlightAware
12:19AM 28.6340 -81.0930 249° West 286 329 4,700 -1,440 Descending FlightAware
12:19AM 28.6240 -81.1220 249° West 247 284 4,800 120 Climbing FlightAware
12:20AM 28.6150 -81.1480 248° West 247 284 4,800 -600 Level FlightAware
12:20AM 28.5990 -81.1950 249° West 238 274 4,200 -1,080 Descending FlightAware
12:22AM 28.6080 -81.1680 69° East 236 272 2,300 -1,020 Descending FlightAware
12:22AM 28.5620 -81.3080 250° West 151 174 2,200 -180 Descending FlightAware
12:23AM 28.5540 -81.3230 239° Southwest 151 174 2,200  Level FlightAware
12:23AM 28.5380 -81.3400 223° Southwest 151 174 2,200  Level FlightAware
12:26AM 28.5620 -81.3080 246° West 151 174 2,200  Level FlightAware
12:26AM 28.5580 -81.3140 233° Southwest 147 169 2,200  Level FlightAware
12:26AM 28.5530 -81.3190 221° Southwest 148 170 2,200  Level FlightAware
12:27AM 28.5460 -81.3240 212° Southwest 150 173 2,200 -360 Level FlightAware
12:27AM 28.5390 -81.3250 187° South 153 176 2,000 -780 Descending FlightAware
12:28AM 28.5310 -81.3240 174° South 154 177 1,700 -480 Descending FlightAware
12:28AM 28.5100 -81.3220 175° South 152 175 1,500 -540 Descending FlightAware
12:29AM 28.4930 -81.3220 180° South 151 174 1,100 -600 Descending FlightAware
12:29AM 28.4810 -81.3230 184° South 133 153 800 -600 Descending FlightAware